Haast (NZHT)

Aerodrome — Elev 22
New Zealand
S043.51.50.300 E169.02.27.400
Loading chart...

Current Weather

NZHT 202300Z 10005KT 310V210 70KM FEW070 10/06 Q1008 RMK LULL 3 GUST 12 ISOL PAS

Published 1 hours 7 minutes ago

Airport Activity

Loading chart...
Loading chart...

Standard ATC Positions

CallsignRadio Name / Freq / Voice Room / TypeFrequencyVoice RoomType
NZCH-S_CTR Christchurch Control
129.300
nzch-s_ctr
129.300nzch-s_ctr
UNICOM NZZC UNICOM
122.800
unicom_nzzc
122.800unicom_nzzc

Event ATC Positions

This airport has additional control positions that are designated for use only during major events.
These non-standard positions must not be staffed unless specifically activated by the VATNZ Airspace Director as part of an official VATNZ event.
At all other times, controllers should use the designated Standard ATC Positions.

CallsignRadio Name / Freq / Voice Room / TypeFrequencyVoice RoomType
NZCH-D_CTR Christchurch Control
129.200
nzch-d_ctr
129.200nzch-d_ctr

Charts

Other Charts

Haast